CheckWX is a tool to help pilots better visualize weather data.  It is not intended as a substitute for an official pre-flight weather briefing.

20:15:10 UTC

KRYM METAR
Ray S Miller AAF Airport
Camp Ripley, Minnesota, USA
Current

19 mins ago

KRYM 231956Z AUTO 23007KT 10SM CLR 19/01 A3003 RMK AO2 SLP178 T01910009 $
Observed
Apr-23 @ 19:56 UTC
Wind
  • 230° at 7 KTS
Visibility
10 SM
Flight Rules
VFR
Cloud Levels
  • Clear skies
Temperature
19°C / 66°F
Dewpoint
C / 34°F
Humidity
30%
Altimeter
30.03" Hg
Pressure
1016.92 hPa
Previous

1 hour ago

KRYM 231856Z AUTO 21007G18KT 10SM CLR 19/00 A3005 RMK AO2 SLP184 T01860004 $
Observed
Apr-23 @ 18:56 UTC
Wind
  • 210° at 7 KTS
  • Gusting to 18 KTS
Visibility
10 SM
Flight Rules
VFR
Cloud Levels
  • Clear skies
Temperature
19°C / 66°F
Dewpoint
C / 32°F
Humidity
28%
Altimeter
30.05" Hg
Pressure
1017.62 hPa
Previous

2 hours ago

KRYM 231756Z AUTO 29010KT 10SM FEW060 18/02 A3007 RMK AO2 SLP192 T01790020 10180 21016 58018 $
Observed
Apr-23 @ 17:56 UTC
Wind
  • 290° at 10 KTS
Visibility
10 SM
Flight Rules
VFR
Cloud Levels
  • Few at 6,000' AGL
Temperature
18°C / 64°F
Dewpoint
C / 36°F
Humidity
34%
Altimeter
30.07" Hg
Pressure
1018.32 hPa